Bishop, Georgia
Current Conditions -  °F | °C
As of 1:51 AM on Friday 19 Dec 2014 (Local Time) from KAHN Reporting Station
Clear Clear  
Wind Chill: 41°   Ceiling: Unl
Heat Index: 41°   Visibility: 10mi
Dew Point: 33°   Wind: 0mph
Humidity: 73%   Direction: NA
Pressure: 30.1"   Gusts: NA
Location:  33.82°N, 83.44°W
Report Text: KAHN 190651Z AUTO 00000KT 10SM CLR 05/01 A3010 RMK AO2 SLP195 T00500006
Loading
Personal Weather Stations






























Interactive Weather Map New forecast layout! Learn more

10-Day Weather Forecast

Advertisements
Track Severe Weather on mobile